sensor_id;sensor_type;location;lat;lon;timestamp;P1;durP1;ratioP1;P2;durP2;ratioP2
7195;SDS011;3639;51.308;5.624;2023-02-28T00:00:10;10.50;;;8.50;;
7195;SDS011;3639;51.308;5.624;2023-02-28T00:02:38;11.20;;;8.63;;
7195;SDS011;3639;51.308;5.624;2023-02-28T00:05:06;9.50;;;8.50;;
7195;SDS011;3639;51.308;5.624;2023-02-28T00:07:32;12.50;;;9.40;;
7195;SDS011;3639;51.308;5.624;2023-02-28T00:09:58;15.83;;;8.97;;
7195;SDS011;3639;51.308;5.624;2023-02-28T00:12:25;12.70;;;8.63;;
7195;SDS011;3639;51.308;5.624;2023-02-28T00:14:51;10.83;;;8.67;;
7195;SDS011;3639;51.308;5.624;2023-02-28T00:17:17;12.80;;;9.03;;
7195;SDS011;3639;51.308;5.624;2023-02-28T00:19:49;11.23;;;8.03;;
7195;SDS011;3639;51.308;5.624;2023-02-28T00:22:19;14.67;;;9.43;;
7195;SDS011;3639;51.308;5.624;2023-02-28T00:24:46;12.10;;;8.73;;
7195;SDS011;3639;51.308;5.624;2023-02-28T00:27:12;14.57;;;8.60;;
7195;SDS011;3639;51.308;5.624;2023-02-28T00:29:39;13.37;;;9.77;;
7195;SDS011;3639;51.308;5.624;2023-02-28T00:32:05;16.47;;;8.67;;
7195;SDS011;3639;51.308;5.624;2023-02-28T00:34:31;11.50;;;8.73;;
7195;SDS011;3639;51.308;5.624;2023-02-28T00:37:06;10.43;;;8.63;;
7195;SDS011;3639;51.308;5.624;2023-02-28T00:39:33;14.77;;;10.43;;
7195;SDS011;3639;51.308;5.624;2023-02-28T00:42:00;15.13;;;10.17;;
7195;SDS011;3639;51.308;5.624;2023-02-28T00:44:26;14.90;;;10.13;;
7195;SDS011;3639;51.308;5.624;2023-02-28T00:46:51;20.77;;;10.53;;
7195;SDS011;3639;51.308;5.624;2023-02-28T00:49:19;13.67;;;9.13;;
7195;SDS011;3639;51.308;5.624;2023-02-28T00:51:45;17.70;;;11.67;;
7195;SDS011;3639;51.308;5.624;2023-02-28T00:54:11;20.90;;;10.20;;
7195;SDS011;3639;51.308;5.624;2023-02-28T00:56:37;15.47;;;10.07;;
7195;SDS011;3639;51.308;5.624;2023-02-28T00:59:02;19.00;;;11.57;;
7195;SDS011;3639;51.308;5.624;2023-02-28T01:01:28;17.60;;;10.97;;
7195;SDS011;3639;51.308;5.624;2023-02-28T01:03:54;18.37;;;10.87;;
7195;SDS011;3639;51.308;5.624;2023-02-28T01:06:20;18.60;;;11.93;;
7195;SDS011;3639;51.308;5.624;2023-02-28T01:08:45;14.50;;;11.07;;
7195;SDS011;3639;51.308;5.624;2023-02-28T01:11:12;20.17;;;11.63;;
7195;SDS011;3639;51.308;5.624;2023-02-28T01:13:40;15.50;;;10.57;;
7195;SDS011;3639;51.308;5.624;2023-02-28T01:16:07;15.60;;;10.20;;
7195;SDS011;3639;51.308;5.624;2023-02-28T01:18:32;13.87;;;9.83;;
7195;SDS011;3639;51.308;5.624;2023-02-28T01:20:58;18.20;;;11.07;;
7195;SDS011;3639;51.308;5.624;2023-02-28T01:23:32;15.10;;;9.67;;
7195;SDS011;3639;51.308;5.624;2023-02-28T01:26:02;14.60;;;11.13;;
7195;SDS011;3639;51.308;5.624;2023-02-28T01:28:32;19.63;;;11.47;;
7195;SDS011;3639;51.308;5.624;2023-02-28T01:30:57;17.80;;;11.17;;
7195;SDS011;3639;51.308;5.624;2023-02-28T01:33:23;17.27;;;11.50;;
7195;SDS011;3639;51.308;5.624;2023-02-28T01:35:56;23.37;;;11.87;;
7195;SDS011;3639;51.308;5.624;2023-02-28T01:38:23;17.00;;;10.43;;
7195;SDS011;3639;51.308;5.624;2023-02-28T01:40:49;17.67;;;11.90;;
7195;SDS011;3639;51.308;5.624;2023-02-28T01:43:20;20.90;;;12.00;;
7195;SDS011;3639;51.308;5.624;2023-02-28T01:45:49;13.70;;;10.43;;
7195;SDS011;3639;51.308;5.624;2023-02-28T01:48:15;18.10;;;10.60;;
7195;SDS011;3639;51.308;5.624;2023-02-28T01:50:41;17.73;;;10.87;;
7195;SDS011;3639;51.308;5.624;2023-02-28T01:53:11;18.10;;;11.87;;
7195;SDS011;3639;51.308;5.624;2023-02-28T01:55:40;14.17;;;10.77;;
7195;SDS011;3639;51.308;5.624;2023-02-28T01:58:08;16.30;;;11.10;;
7195;SDS011;3639;51.308;5.624;2023-02-28T02:00:34;18.27;;;12.20;;
7195;SDS011;3639;51.308;5.624;2023-02-28T02:03:01;17.63;;;11.00;;
7195;SDS011;3639;51.308;5.624;2023-02-28T02:05:32;18.00;;;11.23;;
7195;SDS011;3639;51.308;5.624;2023-02-28T02:08:03;18.43;;;11.97;;
7195;SDS011;3639;51.308;5.624;2023-02-28T02:10:54;21.20;;;12.50;;
7195;SDS011;3639;51.308;5.624;2023-02-28T02:16:35;18.43;;;11.37;;
7195;SDS011;3639;51.308;5.624;2023-02-28T02:22:20;13.97;;;9.83;;
7195;SDS011;3639;51.308;5.624;2023-02-28T02:25:26;17.17;;;11.87;;
7195;SDS011;3639;51.308;5.624;2023-02-28T02:31:33;15.90;;;10.83;;
7195;SDS011;3639;51.308;5.624;2023-02-28T02:37:38;16.97;;;10.37;;
7195;SDS011;3639;51.308;5.624;2023-02-28T02:40:23;17.60;;;10.00;;
7195;SDS011;3639;51.308;5.624;2023-02-28T02:48:12;15.53;;;10.37;;
7195;SDS011;3639;51.308;5.624;2023-02-28T02:50:44;14.53;;;10.50;;
7195;SDS011;3639;51.308;5.624;2023-02-28T02:53:14;14.87;;;9.93;;
7195;SDS011;3639;51.308;5.624;2023-02-28T02:55:44;13.13;;;9.30;;
7195;SDS011;3639;51.308;5.624;2023-02-28T02:58:18;13.87;;;9.50;;
7195;SDS011;3639;51.308;5.624;2023-02-28T03:00:50;16.17;;;9.57;;
7195;SDS011;3639;51.308;5.624;2023-02-28T03:03:19;12.30;;;9.60;;
7195;SDS011;3639;51.308;5.624;2023-02-28T03:05:53;17.37;;;10.40;;
7195;SDS011;3639;51.308;5.624;2023-02-28T03:08:21;11.73;;;9.17;;
7195;SDS011;3639;51.308;5.624;2023-02-28T03:10:50;12.67;;;8.57;;
7195;SDS011;3639;51.308;5.624;2023-02-28T03:16:18;15.17;;;9.10;;
7195;SDS011;3639;51.308;5.624;2023-02-28T03:21:43;13.00;;;8.93;;
7195;SDS011;3639;51.308;5.624;2023-02-28T03:27:11;19.10;;;9.10;;
7195;SDS011;3639;51.308;5.624;2023-02-28T03:35:26;17.33;;;8.47;;
7195;SDS011;3639;51.308;5.624;2023-02-28T03:38:04;12.80;;;8.80;;
7195;SDS011;3639;51.308;5.624;2023-02-28T03:40:34;14.63;;;9.50;;
7195;SDS011;3639;51.308;5.624;2023-02-28T03:43:04;16.93;;;8.60;;
7195;SDS011;3639;51.308;5.624;2023-02-28T03:45:36;10.60;;;8.10;;
7195;SDS011;3639;51.308;5.624;2023-02-28T03:48:08;14.00;;;8.43;;
7195;SDS011;3639;51.308;5.624;2023-02-28T03:50:55;10.17;;;8.37;;
7195;SDS011;3639;51.308;5.624;2023-02-28T03:53:37;11.87;;;9.43;;
7195;SDS011;3639;51.308;5.624;2023-02-28T03:56:17;12.60;;;8.60;;
7195;SDS011;3639;51.308;5.624;2023-02-28T03:58:51;10.87;;;7.83;;
7195;SDS011;3639;51.308;5.624;2023-02-28T04:01:54;14.97;;;8.83;;
7195;SDS011;3639;51.308;5.624;2023-02-28T04:04:20;13.90;;;8.10;;
7195;SDS011;3639;51.308;5.624;2023-02-28T04:06:47;10.40;;;7.60;;
7195;SDS011;3639;51.308;5.624;2023-02-28T04:09:15;11.83;;;9.20;;
7195;SDS011;3639;51.308;5.624;2023-02-28T04:14:12;14.93;;;8.00;;
7195;SDS011;3639;51.308;5.624;2023-02-28T04:16:38;10.07;;;7.43;;
7195;SDS011;3639;51.308;5.624;2023-02-28T04:19:06;10.83;;;8.00;;
7195;SDS011;3639;51.308;5.624;2023-02-28T04:21:37;11.27;;;7.60;;
7195;SDS011;3639;51.308;5.624;2023-02-28T04:24:04;9.50;;;7.43;;
7195;SDS011;3639;51.308;5.624;2023-02-28T04:26:35;11.60;;;7.70;;
7195;SDS011;3639;51.308;5.624;2023-02-28T04:29:02;9.40;;;8.37;;
7195;SDS011;3639;51.308;5.624;2023-02-28T04:31:30;11.10;;;7.10;;
7195;SDS011;3639;51.308;5.624;2023-02-28T04:33:56;10.37;;;7.07;;
7195;SDS011;3639;51.308;5.624;2023-02-28T04:36:22;8.57;;;7.47;;
7195;SDS011;3639;51.308;5.624;2023-02-28T04:38:48;12.73;;;7.80;;
7195;SDS011;3639;51.308;5.624;2023-02-28T04:41:14;9.57;;;7.03;;
7195;SDS011;3639;51.308;5.624;2023-02-28T04:43:41;8.97;;;7.40;;
7195;SDS011;3639;51.308;5.624;2023-02-28T04:46:07;7.77;;;6.97;;
7195;SDS011;3639;51.308;5.624;2023-02-28T04:48:35;10.33;;;7.23;;
7195;SDS011;3639;51.308;5.624;2023-02-28T04:51:02;8.83;;;6.80;;
7195;SDS011;3639;51.308;5.624;2023-02-28T04:53:29;9.13;;;7.03;;
7195;SDS011;3639;51.308;5.624;2023-02-28T04:55:56;13.83;;;8.27;;
7195;SDS011;3639;51.308;5.624;2023-02-28T04:58:22;11.00;;;7.13;;
7195;SDS011;3639;51.308;5.624;2023-02-28T05:00:49;10.97;;;7.80;;
7195;SDS011;3639;51.308;5.624;2023-02-28T05:03:15;13.00;;;7.63;;
7195;SDS011;3639;51.308;5.624;2023-02-28T05:05:40;10.90;;;7.13;;
7195;SDS011;3639;51.308;5.624;2023-02-28T05:08:06;10.20;;;7.37;;
7195;SDS011;3639;51.308;5.624;2023-02-28T05:10:32;7.83;;;6.87;;
7195;SDS011;3639;51.308;5.624;2023-02-28T05:12:58;8.70;;;7.23;;
7195;SDS011;3639;51.308;5.624;2023-02-28T05:15:23;10.23;;;6.90;;
7195;SDS011;3639;51.308;5.624;2023-02-28T05:17:49;7.80;;;6.90;;
7195;SDS011;3639;51.308;5.624;2023-02-28T05:20:15;11.57;;;6.67;;
7195;SDS011;3639;51.308;5.624;2023-02-28T05:22:41;7.23;;;6.47;;
7195;SDS011;3639;51.308;5.624;2023-02-28T05:25:09;11.37;;;7.27;;
7195;SDS011;3639;51.308;5.624;2023-02-28T05:27:37;6.93;;;6.23;;
7195;SDS011;3639;51.308;5.624;2023-02-28T05:30:04;11.80;;;6.80;;
7195;SDS011;3639;51.308;5.624;2023-02-28T05:32:31;12.67;;;7.47;;
7195;SDS011;3639;51.308;5.624;2023-02-28T05:34:57;12.33;;;7.83;;
7195;SDS011;3639;51.308;5.624;2023-02-28T05:37:23;9.10;;;7.40;;
7195;SDS011;3639;51.308;5.624;2023-02-28T05:39:49;10.93;;;7.40;;
7195;SDS011;3639;51.308;5.624;2023-02-28T05:42:14;10.37;;;7.93;;
7195;SDS011;3639;51.308;5.624;2023-02-28T05:44:40;11.93;;;7.57;;
7195;SDS011;3639;51.308;5.624;2023-02-28T05:47:07;10.17;;;7.33;;
7195;SDS011;3639;51.308;5.624;2023-02-28T05:49:32;16.20;;;7.67;;
7195;SDS011;3639;51.308;5.624;2023-02-28T05:51:58;12.37;;;7.37;;
7195;SDS011;3639;51.308;5.624;2023-02-28T05:54:24;12.40;;;7.73;;
7195;SDS011;3639;51.308;5.624;2023-02-28T05:56:49;9.30;;;7.83;;
7195;SDS011;3639;51.308;5.624;2023-02-28T05:59:15;11.33;;;8.40;;
7195;SDS011;3639;51.308;5.624;2023-02-28T06:01:44;8.77;;;7.10;;
7195;SDS011;3639;51.308;5.624;2023-02-28T06:04:13;12.87;;;8.13;;
7195;SDS011;3639;51.308;5.624;2023-02-28T06:06:51;9.83;;;7.93;;
7195;SDS011;3639;51.308;5.624;2023-02-28T06:09:17;11.50;;;8.50;;
7195;SDS011;3639;51.308;5.624;2023-02-28T06:11:44;12.00;;;7.10;;
7195;SDS011;3639;51.308;5.624;2023-02-28T06:14:14;11.10;;;7.90;;
7195;SDS011;3639;51.308;5.624;2023-02-28T06:16:42;12.03;;;8.30;;
7195;SDS011;3639;51.308;5.624;2023-02-28T06:19:08;21.70;;;8.17;;
7195;SDS011;3639;51.308;5.624;2023-02-28T06:21:34;8.27;;;7.20;;
7195;SDS011;3639;51.308;5.624;2023-02-28T06:24:00;9.27;;;7.70;;
7195;SDS011;3639;51.308;5.624;2023-02-28T06:26:27;13.67;;;9.27;;
7195;SDS011;3639;51.308;5.624;2023-02-28T06:28:52;10.87;;;7.70;;
7195;SDS011;3639;51.308;5.624;2023-02-28T06:31:19;14.33;;;7.80;;
7195;SDS011;3639;51.308;5.624;2023-02-28T06:33:45;12.47;;;8.47;;
7195;SDS011;3639;51.308;5.624;2023-02-28T06:36:12;9.60;;;7.73;;
7195;SDS011;3639;51.308;5.624;2023-02-28T06:38:38;12.53;;;9.00;;
7195;SDS011;3639;51.308;5.624;2023-02-28T06:41:06;9.87;;;7.53;;
7195;SDS011;3639;51.308;5.624;2023-02-28T06:43:33;10.40;;;7.73;;
7195;SDS011;3639;51.308;5.624;2023-02-28T06:46:02;7.83;;;6.97;;
7195;SDS011;3639;51.308;5.624;2023-02-28T06:48:30;9.13;;;7.23;;
7195;SDS011;3639;51.308;5.624;2023-02-28T06:51:06;11.83;;;7.97;;
7195;SDS011;3639;51.308;5.624;2023-02-28T06:53:34;21.13;;;8.47;;
7195;SDS011;3639;51.308;5.624;2023-02-28T06:56:03;7.97;;;7.03;;
7195;SDS011;3639;51.308;5.624;2023-02-28T06:58:31;10.23;;;7.70;;
7195;SDS011;3639;51.308;5.624;2023-02-28T07:00:57;8.23;;;7.40;;
7195;SDS011;3639;51.308;5.624;2023-02-28T07:03:22;9.87;;;6.73;;
7195;SDS011;3639;51.308;5.624;2023-02-28T07:05:48;13.10;;;8.43;;
7195;SDS011;3639;51.308;5.624;2023-02-28T07:08:14;33.53;;;11.90;;
7195;SDS011;3639;51.308;5.624;2023-02-28T07:10:40;19.33;;;12.93;;
7195;SDS011;3639;51.308;5.624;2023-02-28T07:13:06;27.30;;;15.90;;
7195;SDS011;3639;51.308;5.624;2023-02-28T07:15:33;17.67;;;12.33;;
7195;SDS011;3639;51.308;5.624;2023-02-28T07:17:59;14.40;;;9.93;;
7195;SDS011;3639;51.308;5.624;2023-02-28T07:20:26;11.20;;;7.80;;
7195;SDS011;3639;51.308;5.624;2023-02-28T07:22:51;8.93;;;7.40;;
7195;SDS011;3639;51.308;5.624;2023-02-28T07:25:30;7.67;;;7.07;;
7195;SDS011;3639;51.308;5.624;2023-02-28T07:27:56;9.37;;;6.80;;
7195;SDS011;3639;51.308;5.624;2023-02-28T07:30:22;7.33;;;6.63;;
7195;SDS011;3639;51.308;5.624;2023-02-28T07:32:47;10.50;;;6.00;;
7195;SDS011;3639;51.308;5.624;2023-02-28T07:35:13;6.60;;;5.60;;
7195;SDS011;3639;51.308;5.624;2023-02-28T07:37:40;13.03;;;6.87;;
7195;SDS011;3639;51.308;5.624;2023-02-28T07:40:08;8.60;;;5.37;;
7195;SDS011;3639;51.308;5.624;2023-02-28T07:42:39;7.13;;;5.80;;
7195;SDS011;3639;51.308;5.624;2023-02-28T07:45:05;7.17;;;5.77;;
7195;SDS011;3639;51.308;5.624;2023-02-28T07:47:32;6.77;;;6.17;;
7195;SDS011;3639;51.308;5.624;2023-02-28T07:49:58;8.70;;;5.53;;
7195;SDS011;3639;51.308;5.624;2023-02-28T07:52:24;7.13;;;6.43;;
7195;SDS011;3639;51.308;5.624;2023-02-28T07:54:50;11.10;;;6.43;;
7195;SDS011;3639;51.308;5.624;2023-02-28T07:57:16;8.37;;;6.20;;
7195;SDS011;3639;51.308;5.624;2023-02-28T07:59:42;6.93;;;5.20;;
7195;SDS011;3639;51.308;5.624;2023-02-28T08:02:14;8.43;;;5.70;;
7195;SDS011;3639;51.308;5.624;2023-02-28T08:04:40;5.23;;;4.80;;
7195;SDS011;3639;51.308;5.624;2023-02-28T08:07:06;5.63;;;5.10;;
7195;SDS011;3639;51.308;5.624;2023-02-28T08:09:32;4.83;;;4.43;;
7195;SDS011;3639;51.308;5.624;2023-02-28T08:11:59;6.17;;;5.53;;
7195;SDS011;3639;51.308;5.624;2023-02-28T08:14:24;7.17;;;5.47;;
7195;SDS011;3639;51.308;5.624;2023-02-28T08:16:50;7.53;;;6.03;;
7195;SDS011;3639;51.308;5.624;2023-02-28T08:19:16;8.50;;;5.30;;
7195;SDS011;3639;51.308;5.624;2023-02-28T08:21:42;4.87;;;4.43;;
7195;SDS011;3639;51.308;5.624;2023-02-28T08:24:07;4.73;;;4.33;;
7195;SDS011;3639;51.308;5.624;2023-02-28T08:26:33;5.33;;;4.57;;
7195;SDS011;3639;51.308;5.624;2023-02-28T08:28:59;5.93;;;4.47;;
7195;SDS011;3639;51.308;5.624;2023-02-28T08:31:24;4.73;;;4.33;;
7195;SDS011;3639;51.308;5.624;2023-02-28T08:33:50;4.70;;;4.30;;
7195;SDS011;3639;51.308;5.624;2023-02-28T08:36:18;4.73;;;4.20;;
7195;SDS011;3639;51.308;5.624;2023-02-28T08:38:44;4.93;;;4.00;;
7195;SDS011;3639;51.308;5.624;2023-02-28T08:41:11;4.60;;;4.13;;
7195;SDS011;3639;51.308;5.624;2023-02-28T08:43:38;3.90;;;3.60;;
7195;SDS011;3639;51.308;5.624;2023-02-28T08:46:04;4.53;;;4.13;;
7195;SDS011;3639;51.308;5.624;2023-02-28T08:48:32;3.60;;;3.30;;
7195;SDS011;3639;51.308;5.624;2023-02-28T08:51:00;5.70;;;4.00;;
7195;SDS011;3639;51.308;5.624;2023-02-28T08:53:28;3.83;;;3.43;;
7195;SDS011;3639;51.308;5.624;2023-02-28T08:56:01;4.73;;;4.23;;
7195;SDS011;3639;51.308;5.624;2023-02-28T08:58:31;5.90;;;3.97;;
7195;SDS011;3639;51.308;5.624;2023-02-28T09:00:59;3.97;;;3.57;;
7195;SDS011;3639;51.308;5.624;2023-02-28T09:03:25;5.90;;;4.00;;
7195;SDS011;3639;51.308;5.624;2023-02-28T09:05:59;3.60;;;3.30;;
7195;SDS011;3639;51.308;5.624;2023-02-28T09:08:25;3.50;;;3.30;;
7195;SDS011;3639;51.308;5.624;2023-02-28T09:10:53;4.07;;;3.67;;
7195;SDS011;3639;51.308;5.624;2023-02-28T09:13:19;3.83;;;3.43;;
7195;SDS011;3639;51.308;5.624;2023-02-28T09:15:45;5.70;;;4.03;;
7195;SDS011;3639;51.308;5.624;2023-02-28T09:18:11;3.33;;;3.03;;
7195;SDS011;3639;51.308;5.624;2023-02-28T09:20:37;4.60;;;3.33;;
7195;SDS011;3639;51.308;5.624;2023-02-28T09:23:05;3.93;;;3.20;;
7195;SDS011;3639;51.308;5.624;2023-02-28T09:25:31;3.20;;;3.00;;
7195;SDS011;3639;51.308;5.624;2023-02-28T09:27:56;5.57;;;3.50;;
7195;SDS011;3639;51.308;5.624;2023-02-28T09:30:22;3.70;;;2.90;;
7195;SDS011;3639;51.308;5.624;2023-02-28T09:32:48;5.73;;;3.53;;
7195;SDS011;3639;51.308;5.624;2023-02-28T09:35:20;4.33;;;3.27;;
7195;SDS011;3639;51.308;5.624;2023-02-28T09:37:47;3.07;;;2.87;;
7195;SDS011;3639;51.308;5.624;2023-02-28T09:40:14;3.67;;;3.17;;
7195;SDS011;3639;51.308;5.624;2023-02-28T09:42:44;3.60;;;3.30;;
7195;SDS011;3639;51.308;5.624;2023-02-28T09:45:35;2.93;;;2.73;;
7195;SDS011;3639;51.308;5.624;2023-02-28T09:48:21;3.10;;;2.90;;
7195;SDS011;3639;51.308;5.624;2023-02-28T09:50:49;3.60;;;3.30;;
7195;SDS011;3639;51.308;5.624;2023-02-28T09:53:31;5.50;;;3.73;;
7195;SDS011;3639;51.308;5.624;2023-02-28T09:56:26;4.23;;;3.20;;
7195;SDS011;3639;51.308;5.624;2023-02-28T10:01:43;3.43;;;3.13;;
7195;SDS011;3639;51.308;5.624;2023-02-28T10:07:21;2.80;;;2.60;;
7195;SDS011;3639;51.308;5.624;2023-02-28T10:10:07;3.20;;;2.90;;
7195;SDS011;3639;51.308;5.624;2023-02-28T10:12:52;2.70;;;2.57;;
7195;SDS011;3639;51.308;5.624;2023-02-28T10:15:21;2.80;;;2.60;;
7195;SDS011;3639;51.308;5.624;2023-02-28T10:17:49;2.50;;;2.30;;
7195;SDS011;3639;51.308;5.624;2023-02-28T10:20:20;2.60;;;2.37;;
7195;SDS011;3639;51.308;5.624;2023-02-28T10:22:53;2.97;;;2.77;;
7195;SDS011;3639;51.308;5.624;2023-02-28T10:25:33;2.90;;;2.70;;
7195;SDS011;3639;51.308;5.624;2023-02-28T10:28:01;3.17;;;2.77;;
7195;SDS011;3639;51.308;5.624;2023-02-28T10:30:39;2.73;;;2.53;;
7195;SDS011;3639;51.308;5.624;2023-02-28T10:33:11;2.87;;;2.60;;
7195;SDS011;3639;51.308;5.624;2023-02-28T10:35:48;3.30;;;3.00;;
7195;SDS011;3639;51.308;5.624;2023-02-28T10:38:21;2.80;;;2.60;;
7195;SDS011;3639;51.308;5.624;2023-02-28T10:40:49;8.17;;;2.77;;
7195;SDS011;3639;51.308;5.624;2023-02-28T10:58:50;9.10;;;3.63;;
7195;SDS011;3639;51.308;5.624;2023-02-28T11:01:17;4.90;;;4.03;;
7195;SDS011;3639;51.308;5.624;2023-02-28T11:03:48;2.93;;;2.67;;
7195;SDS011;3639;51.308;5.624;2023-02-28T11:06:33;3.00;;;2.80;;
7195;SDS011;3639;51.308;5.624;2023-02-28T11:09:04;4.10;;;3.30;;
7195;SDS011;3639;51.308;5.624;2023-02-28T11:11:44;3.00;;;2.80;;
7195;SDS011;3639;51.308;5.624;2023-02-28T11:14:31;4.80;;;3.73;;
7195;SDS011;3639;51.308;5.624;2023-02-28T11:17:22;4.87;;;4.03;;
7195;SDS011;3639;51.308;5.624;2023-02-28T11:19:50;8.00;;;4.70;;
7195;SDS011;3639;51.308;5.624;2023-02-28T11:22:19;4.13;;;3.60;;
7195;SDS011;3639;51.308;5.624;2023-02-28T11:24:49;7.27;;;5.70;;
7195;SDS011;3639;51.308;5.624;2023-02-28T11:27:25;5.73;;;4.70;;
7195;SDS011;3639;51.308;5.624;2023-02-28T11:29:58;5.20;;;3.57;;
7195;SDS011;3639;51.308;5.624;2023-02-28T11:32:26;5.17;;;4.10;;
7195;SDS011;3639;51.308;5.624;2023-02-28T11:37:41;3.20;;;2.90;;
7195;SDS011;3639;51.308;5.624;2023-02-28T11:40:18;2.77;;;2.40;;
7195;SDS011;3639;51.308;5.624;2023-02-28T11:45:35;2.53;;;2.30;;
7195;SDS011;3639;51.308;5.624;2023-02-28T11:50:45;3.60;;;2.50;;
7195;SDS011;3639;51.308;5.624;2023-02-28T11:56:37;3.87;;;3.00;;
7195;SDS011;3639;51.308;5.624;2023-02-28T12:05:01;3.83;;;2.80;;
7195;SDS011;3639;51.308;5.624;2023-02-28T12:08:02;2.90;;;2.60;;
7195;SDS011;3639;51.308;5.624;2023-02-28T12:11:35;2.73;;;2.53;;
7195;SDS011;3639;51.308;5.624;2023-02-28T12:19:17;3.67;;;3.10;;
7195;SDS011;3639;51.308;5.624;2023-02-28T12:25:01;3.97;;;2.90;;
7195;SDS011;3639;51.308;5.624;2023-02-28T12:27:41;3.20;;;3.00;;
7195;SDS011;3639;51.308;5.624;2023-02-28T12:33:14;4.70;;;3.10;;
7195;SDS011;3639;51.308;5.624;2023-02-28T12:35:56;6.77;;;2.87;;
7195;SDS011;3639;51.308;5.624;2023-02-28T12:44:17;4.43;;;3.33;;
7195;SDS011;3639;51.308;5.624;2023-02-28T12:46:51;2.77;;;2.47;;
7195;SDS011;3639;51.308;5.624;2023-02-28T13:00:38;2.90;;;2.70;;
7195;SDS011;3639;51.308;5.624;2023-02-28T13:09:29;3.00;;;2.80;;
7195;SDS011;3639;51.308;5.624;2023-02-28T13:11:56;3.10;;;2.80;;
7195;SDS011;3639;51.308;5.624;2023-02-28T13:14:27;3.40;;;2.93;;
7195;SDS011;3639;51.308;5.624;2023-02-28T13:17:09;3.07;;;2.77;;
7195;SDS011;3639;51.308;5.624;2023-02-28T13:19:42;3.30;;;3.00;;
7195;SDS011;3639;51.308;5.624;2023-02-28T13:22:20;3.30;;;3.00;;
7195;SDS011;3639;51.308;5.624;2023-02-28T13:27:51;3.97;;;3.57;;
7195;SDS011;3639;51.308;5.624;2023-02-28T14:08:53;3.40;;;2.70;;
7195;SDS011;3639;51.308;5.624;2023-02-28T14:11:26;3.90;;;3.20;;
7195;SDS011;3639;51.308;5.624;2023-02-28T14:13:57;3.33;;;3.03;;
7195;SDS011;3639;51.308;5.624;2023-02-28T14:16:23;4.20;;;2.93;;
7195;SDS011;3639;51.308;5.624;2023-02-28T14:18:58;4.33;;;3.57;;
7195;SDS011;3639;51.308;5.624;2023-02-28T14:21:32;3.83;;;3.23;;
7195;SDS011;3639;51.308;5.624;2023-02-28T14:26:49;3.73;;;3.07;;
7195;SDS011;3639;51.308;5.624;2023-02-28T14:32:02;4.27;;;3.20;;
7195;SDS011;3639;51.308;5.624;2023-02-28T14:34:45;4.77;;;3.07;;
7195;SDS011;3639;51.308;5.624;2023-02-28T14:37:30;4.17;;;3.20;;
7195;SDS011;3639;51.308;5.624;2023-02-28T14:40:01;3.83;;;2.97;;
7195;SDS011;3639;51.308;5.624;2023-02-28T14:42:31;5.10;;;3.17;;
7195;SDS011;3639;51.308;5.624;2023-02-28T14:45:02;6.93;;;3.10;;
7195;SDS011;3639;51.308;5.624;2023-02-28T14:47:32;3.13;;;2.80;;
7195;SDS011;3639;51.308;5.624;2023-02-28T14:50:00;4.53;;;3.00;;
7195;SDS011;3639;51.308;5.624;2023-02-28T14:52:32;3.10;;;2.80;;
7195;SDS011;3639;51.308;5.624;2023-02-28T14:54:59;4.90;;;2.60;;
7195;SDS011;3639;51.308;5.624;2023-02-28T14:57:29;2.70;;;2.50;;
7195;SDS011;3639;51.308;5.624;2023-02-28T15:00:00;3.10;;;2.80;;
7195;SDS011;3639;51.308;5.624;2023-02-28T15:02:41;3.90;;;3.20;;
7195;SDS011;3639;51.308;5.624;2023-02-28T15:07:43;26.60;;;13.33;;
7195;SDS011;3639;51.308;5.624;2023-02-28T15:10:11;4.97;;;4.10;;
7195;SDS011;3639;51.308;5.624;2023-02-28T15:12:56;6.47;;;3.50;;
7195;SDS011;3639;51.308;5.624;2023-02-28T15:18:20;4.13;;;3.20;;
7195;SDS011;3639;51.308;5.624;2023-02-28T15:21:02;4.17;;;3.73;;
7195;SDS011;3639;51.308;5.624;2023-02-28T15:23:31;3.50;;;3.20;;
7195;SDS011;3639;51.308;5.624;2023-02-28T15:25:59;4.70;;;3.77;;
7195;SDS011;3639;51.308;5.624;2023-02-28T15:28:25;3.77;;;3.37;;
7195;SDS011;3639;51.308;5.624;2023-02-28T15:31:01;6.13;;;5.00;;
7195;SDS011;3639;51.308;5.624;2023-02-28T15:33:51;6.63;;;3.33;;
7195;SDS011;3639;51.308;5.624;2023-02-28T15:36:21;5.23;;;4.80;;
7195;SDS011;3639;51.308;5.624;2023-02-28T15:38:52;4.37;;;3.60;;
7195;SDS011;3639;51.308;5.624;2023-02-28T15:41:27;3.67;;;3.00;;
7195;SDS011;3639;51.308;5.624;2023-02-28T15:46:45;4.30;;;3.57;;
7195;SDS011;3639;51.308;5.624;2023-02-28T15:49:21;4.07;;;3.50;;
7195;SDS011;3639;51.308;5.624;2023-02-28T15:51:49;4.03;;;3.63;;
7195;SDS011;3639;51.308;5.624;2023-02-28T15:54:21;8.40;;;5.30;;
7195;SDS011;3639;51.308;5.624;2023-02-28T15:56:53;4.93;;;4.00;;
7195;SDS011;3639;51.308;5.624;2023-02-28T15:59:22;8.50;;;3.67;;
7195;SDS011;3639;51.308;5.624;2023-02-28T16:04:34;4.90;;;3.10;;
7195;SDS011;3639;51.308;5.624;2023-02-28T16:07:05;4.00;;;3.60;;
7195;SDS011;3639;51.308;5.624;2023-02-28T16:09:37;4.17;;;3.80;;
7195;SDS011;3639;51.308;5.624;2023-02-28T16:12:03;4.90;;;3.77;;
7195;SDS011;3639;51.308;5.624;2023-02-28T16:14:30;5.23;;;3.00;;
7195;SDS011;3639;51.308;5.624;2023-02-28T16:16:57;3.77;;;3.47;;
7195;SDS011;3639;51.308;5.624;2023-02-28T16:19:29;4.17;;;3.77;;
7195;SDS011;3639;51.308;5.624;2023-02-28T16:21:55;5.47;;;3.10;;
7195;SDS011;3639;51.308;5.624;2023-02-28T16:24:22;3.90;;;3.53;;
7195;SDS011;3639;51.308;5.624;2023-02-28T16:26:48;4.50;;;3.73;;
7195;SDS011;3639;51.308;5.624;2023-02-28T16:29:23;4.97;;;3.90;;
7195;SDS011;3639;51.308;5.624;2023-02-28T16:31:49;5.07;;;3.77;;
7195;SDS011;3639;51.308;5.624;2023-02-28T16:34:15;3.63;;;3.30;;
7195;SDS011;3639;51.308;5.624;2023-02-28T16:36:41;3.83;;;3.23;;
7195;SDS011;3639;51.308;5.624;2023-02-28T16:39:06;4.73;;;3.47;;
7195;SDS011;3639;51.308;5.624;2023-02-28T16:41:32;7.73;;;3.80;;
7195;SDS011;3639;51.308;5.624;2023-02-28T16:43:59;5.20;;;3.40;;
7195;SDS011;3639;51.308;5.624;2023-02-28T16:46:34;3.57;;;3.27;;
7195;SDS011;3639;51.308;5.624;2023-02-28T16:49:00;3.77;;;3.40;;
7195;SDS011;3639;51.308;5.624;2023-02-28T16:51:26;5.80;;;3.73;;
7195;SDS011;3639;51.308;5.624;2023-02-28T16:53:55;4.00;;;3.60;;
7195;SDS011;3639;51.308;5.624;2023-02-28T16:56:22;4.23;;;3.80;;
7195;SDS011;3639;51.308;5.624;2023-02-28T16:58:49;4.03;;;3.50;;
7195;SDS011;3639;51.308;5.624;2023-02-28T17:01:16;4.63;;;3.80;;
7195;SDS011;3639;51.308;5.624;2023-02-28T17:03:46;3.83;;;3.50;;
7195;SDS011;3639;51.308;5.624;2023-02-28T17:06:17;5.17;;;3.93;;
7195;SDS011;3639;51.308;5.624;2023-02-28T17:08:54;4.00;;;3.60;;
7195;SDS011;3639;51.308;5.624;2023-02-28T17:11:22;4.20;;;3.80;;
7195;SDS011;3639;51.308;5.624;2023-02-28T17:13:49;5.43;;;4.53;;
7195;SDS011;3639;51.308;5.624;2023-02-28T17:16:48;4.70;;;4.30;;
7195;SDS011;3639;51.308;5.624;2023-02-28T17:19:10;11.23;;;9.90;;
7195;SDS011;3639;51.308;5.624;2023-02-28T17:21:38;5.50;;;5.00;;
7195;SDS011;3639;51.308;5.624;2023-02-28T17:24:06;5.30;;;4.90;;
7195;SDS011;3639;51.308;5.624;2023-02-28T17:26:33;5.10;;;4.67;;
7195;SDS011;3639;51.308;5.624;2023-02-28T17:28:59;5.03;;;4.10;;
7195;SDS011;3639;51.308;5.624;2023-02-28T17:31:25;4.87;;;4.47;;
7195;SDS011;3639;51.308;5.624;2023-02-28T17:33:52;6.87;;;4.73;;
7195;SDS011;3639;51.308;5.624;2023-02-28T17:36:23;5.47;;;4.40;;
7195;SDS011;3639;51.308;5.624;2023-02-28T17:38:50;3.90;;;3.50;;
7195;SDS011;3639;51.308;5.624;2023-02-28T17:41:17;4.23;;;3.90;;
7195;SDS011;3639;51.308;5.624;2023-02-28T17:43:42;4.70;;;3.83;;
7195;SDS011;3639;51.308;5.624;2023-02-28T17:46:11;4.27;;;3.97;;
7195;SDS011;3639;51.308;5.624;2023-02-28T17:48:42;4.57;;;4.17;;
7195;SDS011;3639;51.308;5.624;2023-02-28T17:51:09;4.87;;;3.57;;
7195;SDS011;3639;51.308;5.624;2023-02-28T17:53:37;3.73;;;3.43;;
7195;SDS011;3639;51.308;5.624;2023-02-28T17:56:03;5.57;;;4.33;;
7195;SDS011;3639;51.308;5.624;2023-02-28T17:58:29;4.57;;;4.17;;
7195;SDS011;3639;51.308;5.624;2023-02-28T18:00:56;5.23;;;4.77;;
7195;SDS011;3639;51.308;5.624;2023-02-28T18:03:21;4.80;;;4.37;;
7195;SDS011;3639;51.308;5.624;2023-02-28T18:05:49;4.70;;;4.17;;
7195;SDS011;3639;51.308;5.624;2023-02-28T18:08:15;6.07;;;5.07;;
7195;SDS011;3639;51.308;5.624;2023-02-28T18:10:41;5.77;;;5.03;;